Time;durP1;ratioP1;P1;durP2;ratioP2;P2;SDS_P1;SDS_P2;PMS_P1;PMS_P2;Temp;Humidity;BMP_temperature;BMP_pressure;BME280_temperature;BME280_humidity;BME280_pressure;Samples;Min_cycle;Max_cycle;Signal;HPM_P1;HPM_P2
2022/05/23 00:01:27;;;;;;;7.38;2.60;;;;;;;;;;5002199;28;20030;-74
2022/05/23 00:03:53;;;;;;;4.25;2.33;;;;;;;;;;5009208;28;20033;-74
2022/05/23 00:06:20;;;;;;;5.72;2.20;;;;;;;;;;5005533;28;20052;-74
2022/05/23 00:08:47;;;;;;;6.60;2.53;;;;;;;;;;5008795;28;20379;-73
2022/05/23 00:11:13;;;;;;;8.05;3.75;;;;;;;;;;5010695;28;20447;-74
2022/05/23 00:13:39;;;;;;;5.20;2.15;;;;;;;;;;5013659;28;20029;-74
2022/05/23 00:16:06;;;;;;;6.25;3.05;;;;;;;;;;5009640;28;20641;-74
2022/05/23 00:18:32;;;;;;;3.63;2.30;;;;;;;;;;5016643;28;20771;-74
2022/05/23 00:20:58;;;;;;;5.07;2.75;;;;;;;;;;5006876;28;20077;-75
2022/05/23 00:23:28;;;;;;;6.30;2.47;;;;;;;;;;5009179;28;20038;-74
2022/05/23 00:25:55;;;;;;;4.60;2.40;;;;;;;;;;5018695;28;20018;-74
2022/05/23 00:28:21;;;;;;;8.05;2.25;;;;;;;;;;5002856;28;20049;-73
2022/05/23 00:30:47;;;;;;;5.20;2.58;;;;;;;;;;5007510;28;20049;-75
2022/05/23 00:35:58;;;;;;;4.97;2.17;;;;;;;;;;5006156;28;20113;-74
2022/05/23 00:38:24;;;;;;;3.63;2.58;;;;;;;;;;5008228;28;20084;-74
2022/05/23 00:43:13;;;;;;;4.35;2.17;;;;;;;;;;5011381;28;20026;-74
2022/05/23 00:43:43;;;;;;;4.95;3.13;;;;;;;;;;5003775;28;20049;-75
2022/05/23 00:46:11;;;;;;;7.45;2.85;;;;;;;;;;5007617;28;20072;-75
2022/05/23 00:48:37;;;;;;;4.78;3.05;;;;;;;;;;5011118;28;20061;-75
2022/05/23 00:51:07;;;;;;;6.47;2.10;;;;;;;;;;5011926;28;20042;-74
2022/05/23 00:53:38;;;;;;;5.53;2.47;;;;;;;;;;5006759;28;20084;-74
2022/05/23 00:56:06;;;;;;;4.05;2.10;;;;;;;;;;5009876;28;20040;-75
2022/05/23 00:58:33;;;;;;;4.47;2.35;;;;;;;;;;5008725;28;20026;-73
2022/05/23 01:01:01;;;;;;;3.67;2.35;;;;;;;;;;5007801;28;20037;-73
2022/05/23 01:03:28;;;;;;;3.75;2.38;;;;;;;;;;5005618;28;20026;-73
2022/05/23 01:05:54;;;;;;;6.03;2.05;;;;;;;;;;5008021;28;20018;-74
2022/05/23 01:08:21;;;;;;;5.10;2.30;;;;;;;;;;5004741;28;20678;-74
2022/05/23 01:10:48;;;;;;;5.68;2.50;;;;;;;;;;5008520;28;20037;-74
2022/05/23 01:13:15;;;;;;;6.68;2.70;;;;;;;;;;5008213;28;20072;-74
2022/05/23 01:15:43;;;;;;;4.90;2.58;;;;;;;;;;5007893;28;20042;-74
2022/05/23 01:18:09;;;;;;;3.38;2.00;;;;;;;;;;5013846;28;20503;-74
2022/05/23 01:20:36;;;;;;;3.78;2.10;;;;;;;;;;5005390;28;20052;-73
2022/05/23 01:23:02;;;;;;;5.35;1.95;;;;;;;;;;5007446;28;20026;-74
2022/05/23 01:25:40;;;;;;;3.70;2.20;;;;;;;;;;5010723;28;20041;-74
2022/05/23 01:28:06;;;;;;;4.32;2.10;;;;;;;;;;5012478;28;20113;-73
2022/05/23 01:30:34;;;;;;;3.17;2.03;;;;;;;;;;5008951;28;20030;-72
2022/05/23 01:33:00;;;;;;;4.80;2.10;;;;;;;;;;5008400;28;20036;-73
2022/05/23 01:35:27;;;;;;;3.05;2.00;;;;;;;;;;5008213;28;20045;-73
2022/05/23 01:37:53;;;;;;;5.53;2.40;;;;;;;;;;5005182;28;20045;-73
2022/05/23 01:40:20;;;;;;;5.88;2.35;;;;;;;;;;5006466;28;20041;-73
2022/05/23 01:42:46;;;;;;;9.10;2.72;;;;;;;;;;5006343;28;20044;-74
2022/05/23 01:45:13;;;;;;;3.25;2.33;;;;;;;;;;5012051;28;20054;-73
2022/05/23 01:47:40;;;;;;;5.35;2.70;;;;;;;;;;5010753;28;20026;-72
2022/05/23 01:50:06;;;;;;;9.13;2.92;;;;;;;;;;5016305;28;20033;-74
2022/05/23 01:52:32;;;;;;;4.28;2.83;;;;;;;;;;5010714;28;20029;-73
2022/05/23 01:54:59;;;;;;;7.85;2.95;;;;;;;;;;5010983;28;20116;-73
2022/05/23 01:57:25;;;;;;;4.25;2.85;;;;;;;;;;5011956;28;20118;-73
2022/05/23 02:02:36;;;;;;;5.63;2.70;;;;;;;;;;5007279;28;20064;-73
2022/05/23 02:05:03;;;;;;;4.63;2.40;;;;;;;;;;5021329;28;20108;-74
2022/05/23 02:07:29;;;;;;;5.60;2.47;;;;;;;;;;5012958;28;20463;-74
2022/05/23 02:09:56;;;;;;;4.22;2.45;;;;;;;;;;5014616;28;20424;-73
2022/05/23 02:12:22;;;;;;;4.65;2.22;;;;;;;;;;5013511;28;20105;-73
2022/05/23 02:14:49;;;;;;;3.58;2.35;;;;;;;;;;5012869;28;20109;-72
2022/05/23 02:17:15;;;;;;;6.03;2.83;;;;;;;;;;5003625;28;20493;-73
2022/05/23 02:19:42;;;;;;;6.18;2.60;;;;;;;;;;5014734;28;20034;-74
2022/05/23 02:22:08;;;;;;;6.32;2.65;;;;;;;;;;5014944;28;20045;-74
2022/05/23 02:24:34;;;;;;;9.30;2.75;;;;;;;;;;5007483;28;20096;-74
2022/05/23 02:27:00;;;;;;;5.82;2.70;;;;;;;;;;5014685;28;20032;-74
2022/05/23 02:29:27;;;;;;;3.03;2.13;;;;;;;;;;5006909;28;20034;-73
2022/05/23 02:31:53;;;;;;;6.07;2.50;;;;;;;;;;5010693;28;20096;-74
2022/05/23 02:34:19;;;;;;;7.03;2.90;;;;;;;;;;5011657;28;20041;-75
2022/05/23 02:36:47;;;;;;;4.72;3.67;;;;;;;;;;5009828;28;20054;-75
2022/05/23 02:39:13;;;;;;;5.88;3.20;;;;;;;;;;5006457;28;20030;-74
2022/05/23 02:41:40;;;;;;;5.53;3.10;;;;;;;;;;5011317;28;20037;-74
2022/05/23 02:44:06;;;;;;;6.10;3.47;;;;;;;;;;5011179;28;20073;-74
2022/05/23 02:46:33;;;;;;;9.85;3.20;;;;;;;;;;5012304;28;20026;-74
2022/05/23 02:48:59;;;;;;;7.85;2.97;;;;;;;;;;5009852;28;20040;-74
2022/05/23 02:51:25;;;;;;;7.07;2.97;;;;;;;;;;5009252;28;20045;-74
2022/05/23 02:53:52;;;;;;;4.57;2.60;;;;;;;;;;5009327;28;20463;-74
2022/05/23 02:56:18;;;;;;;7.00;2.80;;;;;;;;;;5007459;28;20026;-75
2022/05/23 02:58:44;;;;;;;4.90;2.80;;;;;;;;;;5010336;28;20057;-74
2022/05/23 03:01:11;;;;;;;9.02;3.88;;;;;;;;;;5002154;28;20038;-73
2022/05/23 03:03:39;;;;;;;5.53;2.85;;;;;;;;;;5010214;28;20018;-72
2022/05/23 03:06:05;;;;;;;6.20;3.35;;;;;;;;;;5003179;28;20022;-73
2022/05/23 03:08:31;;;;;;;4.80;2.70;;;;;;;;;;5011999;28;20026;-73
2022/05/23 03:10:59;;;;;;;3.88;2.90;;;;;;;;;;5008030;28;20053;-74
2022/05/23 03:13:25;;;;;;;8.57;2.95;;;;;;;;;;5014826;28;20053;-73
2022/05/23 03:15:51;;;;;;;8.15;2.83;;;;;;;;;;5014862;28;20133;-74
2022/05/23 03:18:17;;;;;;;5.57;2.75;;;;;;;;;;5017273;28;20143;-74
2022/05/23 03:20:44;;;;;;;6.63;2.85;;;;;;;;;;5007287;28;20532;-75
2022/05/23 03:28:42;;;;;;;5.38;2.80;;;;;;;;;;5007461;28;20099;-73
2022/05/23 03:31:08;;;;;;;7.13;2.60;;;;;;;;;;5007739;28;20026;-73
2022/05/23 03:33:34;;;;;;;6.47;2.63;;;;;;;;;;5010903;28;20080;-72
2022/05/23 03:36:00;;;;;;;5.43;3.95;;;;;;;;;;4998988;28;20445;-73
2022/05/23 03:38:27;;;;;;;4.22;2.83;;;;;;;;;;5015512;28;20044;-73
2022/05/23 03:40:53;;;;;;;4.15;2.65;;;;;;;;;;5009739;28;20037;-72
2022/05/23 03:43:19;;;;;;;5.78;2.45;;;;;;;;;;5009181;28;20042;-73
2022/05/23 03:45:45;;;;;;;3.60;2.50;;;;;;;;;;5011832;28;20110;-73
2022/05/23 03:48:12;;;;;;;3.70;2.90;;;;;;;;;;5012464;28;20033;-73
2022/05/23 03:50:38;;;;;;;4.07;2.30;;;;;;;;;;5008831;28;20041;-72
2022/05/23 03:53:04;;;;;;;4.03;2.60;;;;;;;;;;5006403;28;20208;-73
2022/05/23 03:55:31;;;;;;;4.15;2.65;;;;;;;;;;5015621;28;20440;-73
2022/05/23 03:58:00;;;;;;;4.93;2.58;;;;;;;;;;5009170;28;20533;-72
2022/05/23 04:00:26;;;;;;;6.85;2.78;;;;;;;;;;5008696;28;20037;-73
2022/05/23 04:02:52;;;;;;;5.60;2.42;;;;;;;;;;5009857;28;20653;-73
2022/05/23 04:05:18;;;;;;;4.85;2.55;;;;;;;;;;5010514;28;20076;-73
2022/05/23 04:07:45;;;;;;;8.43;2.83;;;;;;;;;;5010371;28;20415;-74
2022/05/23 04:10:13;;;;;;;5.40;2.95;;;;;;;;;;5005850;28;20104;-74
2022/05/23 04:12:39;;;;;;;3.80;2.65;;;;;;;;;;5009104;28;20039;-73
2022/05/23 04:15:06;;;;;;;4.03;2.80;;;;;;;;;;5010698;28;20395;-73
2022/05/23 04:17:32;;;;;;;6.13;3.10;;;;;;;;;;5007637;28;20101;-72
2022/05/23 04:19:59;;;;;;;4.85;2.50;;;;;;;;;;5008413;28;20078;-74
2022/05/23 04:22:25;;;;;;;3.03;2.17;;;;;;;;;;5010773;28;20104;-74
2022/05/23 04:24:51;;;;;;;6.20;2.67;;;;;;;;;;5007277;28;20017;-74
2022/05/23 04:27:17;;;;;;;2.83;2.58;;;;;;;;;;5002615;28;20038;-74
2022/05/23 04:29:43;;;;;;;2.72;2.10;;;;;;;;;;5009413;28;20030;-74
2022/05/23 04:35:13;;;;;;;4.40;2.30;;;;;;;;;;5008605;28;20098;-74
2022/05/23 04:37:40;;;;;;;4.97;2.25;;;;;;;;;;5005995;28;20038;-73
2022/05/23 04:40:06;;;;;;;5.28;2.50;;;;;;;;;;5003994;28;20073;-74
2022/05/23 04:42:32;;;;;;;2.92;2.17;;;;;;;;;;5008452;28;20100;-72
2022/05/23 04:44:58;;;;;;;2.30;2.10;;;;;;;;;;5005959;28;20049;-74
2022/05/23 04:50:09;;;;;;;2.45;2.13;;;;;;;;;;5001131;28;20044;-73
2022/05/23 04:52:35;;;;;;;3.53;2.15;;;;;;;;;;5001413;28;20042;-72
2022/05/23 04:55:02;;;;;;;5.28;2.00;;;;;;;;;;5003715;28;20109;-72
2022/05/23 04:57:28;;;;;;;5.78;2.10;;;;;;;;;;5007935;28;20053;-73
2022/05/23 04:59:54;;;;;;;2.38;1.77;;;;;;;;;;5007367;28;20030;-72
2022/05/23 05:02:20;;;;;;;3.75;2.42;;;;;;;;;;5009108;28;20036;-73
2022/05/23 05:04:46;;;;;;;2.78;1.85;;;;;;;;;;5004308;28;20053;-72
2022/05/23 05:07:13;;;;;;;4.82;1.80;;;;;;;;;;5010104;28;20538;-73
2022/05/23 05:09:39;;;;;;;4.88;1.70;;;;;;;;;;5008491;28;20026;-74
2022/05/23 05:12:06;;;;;;;2.45;2.25;;;;;;;;;;5011964;28;20071;-73
2022/05/23 05:14:34;;;;;;;2.97;1.90;;;;;;;;;;5009894;28;20807;-73
2022/05/23 05:17:00;;;;;;;1.92;1.75;;;;;;;;;;5002109;28;20022;-73
2022/05/23 05:19:27;;;;;;;2.22;1.80;;;;;;;;;;5008623;28;20025;-72
2022/05/23 05:22:06;;;;;;;4.20;2.40;;;;;;;;;;5003899;28;20058;-72
2022/05/23 05:24:32;;;;;;;2.95;2.20;;;;;;;;;;5003179;28;20423;-73
2022/05/23 05:26:59;;;;;;;2.50;1.90;;;;;;;;;;5007356;28;20131;-72
2022/05/23 05:29:25;;;;;;;2.40;1.90;;;;;;;;;;5010997;28;20030;-72
2022/05/23 05:31:57;;;;;;;4.38;2.25;;;;;;;;;;5010049;28;20037;-74
2022/05/23 05:34:32;;;;;;;3.00;1.80;;;;;;;;;;5012470;28;20690;-73
2022/05/23 05:37:02;;;;;;;2.17;1.90;;;;;;;;;;5008529;28;20026;-73
2022/05/23 05:39:31;;;;;;;4.47;2.15;;;;;;;;;;5008954;28;20030;-74
2022/05/23 05:42:09;;;;;;;2.92;1.70;;;;;;;;;;5005792;28;20028;-73
2022/05/23 05:44:39;;;;;;;1.60;1.50;;;;;;;;;;5011711;28;20133;-73
2022/05/23 05:47:10;;;;;;;2.60;1.60;;;;;;;;;;5011580;28;20029;-74
2022/05/23 05:49:38;;;;;;;3.63;2.00;;;;;;;;;;5008857;28;20021;-74
2022/05/23 05:52:06;;;;;;;2.55;1.73;;;;;;;;;;5009076;28;20030;-74
2022/05/23 05:54:32;;;;;;;3.15;1.90;;;;;;;;;;5000571;28;20023;-74
2022/05/23 05:56:59;;;;;;;3.10;2.00;;;;;;;;;;5003881;28;20032;-75
2022/05/23 05:59:26;;;;;;;5.15;1.92;;;;;;;;;;5001710;28;20813;-74
2022/05/23 06:01:52;;;;;;;4.85;1.60;;;;;;;;;;5014311;28;20443;-75
2022/05/23 06:04:18;;;;;;;3.15;1.85;;;;;;;;;;5008241;28;20032;-73
2022/05/23 06:12:13;;;;;;;3.85;1.90;;;;;;;;;;5008963;28;20064;-74
2022/05/23 06:14:40;;;;;;;2.50;1.83;;;;;;;;;;5004532;28;20026;-74
2022/05/23 06:17:07;;;;;;;2.60;1.70;;;;;;;;;;5008318;28;20448;-74
2022/05/23 06:19:38;;;;;;;2.00;1.80;;;;;;;;;;5006426;28;20029;-73
2022/05/23 06:22:07;;;;;;;4.80;2.17;;;;;;;;;;5006058;28;20030;-75
2022/05/23 06:24:33;;;;;;;5.03;1.98;;;;;;;;;;5000998;28;20033;-74
2022/05/23 06:27:00;;;;;;;6.95;2.65;;;;;;;;;;5004200;28;20049;-73
2022/05/23 06:29:26;;;;;;;4.60;2.10;;;;;;;;;;5006586;28;20041;-74
2022/05/23 06:31:52;;;;;;;3.42;1.90;;;;;;;;;;5009850;28;20524;-74
2022/05/23 06:34:19;;;;;;;2.35;2.15;;;;;;;;;;5006114;28;20408;-73
2022/05/23 06:36:45;;;;;;;3.45;1.90;;;;;;;;;;5010244;28;20026;-74
2022/05/23 06:39:11;;;;;;;4.35;2.15;;;;;;;;;;5005796;28;20026;-73
2022/05/23 06:41:37;;;;;;;3.58;1.90;;;;;;;;;;5007697;28;20033;-74
2022/05/23 06:44:03;;;;;;;4.97;2.20;;;;;;;;;;5010576;28;20100;-72
2022/05/23 06:46:29;;;;;;;2.85;1.90;;;;;;;;;;5006814;28;20033;-74
2022/05/23 06:48:55;;;;;;;4.30;1.73;;;;;;;;;;5009939;28;20021;-74
2022/05/23 06:51:21;;;;;;;4.63;2.50;;;;;;;;;;5009038;28;20041;-73
2022/05/23 06:53:47;;;;;;;3.58;1.80;;;;;;;;;;5011661;28;20108;-73
2022/05/23 06:56:13;;;;;;;5.40;2.10;;;;;;;;;;5009520;28;20026;-73
2022/05/23 06:58:40;;;;;;;6.85;2.20;;;;;;;;;;5006074;28;20025;-73
2022/05/23 07:01:06;;;;;;;3.20;2.88;;;;;;;;;;5017557;28;20475;-73
2022/05/23 07:03:32;;;;;;;6.22;2.10;;;;;;;;;;5013636;28;21734;-74
2022/05/23 07:14:13;;;;;;;4.18;1.85;;;;;;;;;;5003077;28;20492;-75
2022/05/23 07:16:39;;;;;;;3.95;1.85;;;;;;;;;;4998279;28;20026;-73
2022/05/23 07:19:05;;;;;;;2.42;1.80;;;;;;;;;;5005975;28;20037;-77
2022/05/23 07:21:31;;;;;;;5.00;2.05;;;;;;;;;;5004111;28;20044;-76
2022/05/23 07:24:00;;;;;;;4.40;1.90;;;;;;;;;;4999510;28;20118;-74
2022/05/23 07:26:27;;;;;;;2.97;1.70;;;;;;;;;;5000650;28;20693;-74
2022/05/23 07:28:53;;;;;;;2.45;1.90;;;;;;;;;;5005700;28;20113;-74
2022/05/23 07:31:20;;;;;;;5.22;2.00;;;;;;;;;;5007284;28;20097;-74
2022/05/23 07:33:46;;;;;;;5.30;2.28;;;;;;;;;;4998610;28;20031;-74
2022/05/23 07:36:13;;;;;;;4.97;2.22;;;;;;;;;;5002575;28;20042;-75
2022/05/23 07:38:39;;;;;;;3.75;2.50;;;;;;;;;;5003534;28;20126;-74
2022/05/23 07:41:07;;;;;;;2.90;2.08;;;;;;;;;;5018221;28;20041;-76
2022/05/23 07:43:36;;;;;;;3.75;2.03;;;;;;;;;;5004302;28;20041;-75
2022/05/23 07:46:09;;;;;;;2.88;1.92;;;;;;;;;;5001675;28;20021;-75
2022/05/23 07:48:43;;;;;;;4.25;1.83;;;;;;;;;;5005440;28;20037;-76
2022/05/23 07:51:13;;;;;;;2.85;1.80;;;;;;;;;;5003830;28;20025;-75
2022/05/23 08:01:54;;;;;;;3.92;2.08;;;;;;;;;;5008544;28;20041;-75
2022/05/23 08:04:20;;;;;;;3.50;1.92;;;;;;;;;;5009444;28;20053;-74
2022/05/23 08:06:47;;;;;;;2.83;2.00;;;;;;;;;;5007767;28;20101;-74
2022/05/23 08:09:13;;;;;;;3.92;1.75;;;;;;;;;;5008438;28;20617;-74
2022/05/23 08:11:40;;;;;;;4.15;1.85;;;;;;;;;;5005905;28;20038;-75
2022/05/23 08:14:06;;;;;;;4.97;1.67;;;;;;;;;;5009192;28;20029;-75
2022/05/23 08:16:32;;;;;;;3.45;1.85;;;;;;;;;;5005200;28;20099;-76
2022/05/23 08:18:58;;;;;;;2.33;1.80;;;;;;;;;;5005700;28;20025;-73
2022/05/23 08:21:25;;;;;;;3.40;1.90;;;;;;;;;;5003769;28;20137;-73
2022/05/23 08:23:51;;;;;;;7.20;1.80;;;;;;;;;;5004097;28;20704;-73
2022/05/23 08:26:17;;;;;;;4.03;1.90;;;;;;;;;;5007667;28;20029;-73
2022/05/23 08:28:44;;;;;;;4.25;2.00;;;;;;;;;;5003724;28;20629;-73
2022/05/23 08:31:10;;;;;;;2.60;2.15;;;;;;;;;;5000611;28;20704;-73
2022/05/23 08:33:36;;;;;;;3.45;1.88;;;;;;;;;;4999815;28;20072;-76
2022/05/23 08:36:02;;;;;;;2.78;1.63;;;;;;;;;;5005331;28;20131;-75
2022/05/23 08:38:28;;;;;;;5.60;1.60;;;;;;;;;;5000127;28;20491;-74
2022/05/23 08:41:06;;;;;;;4.00;2.38;;;;;;;;;;5005958;28;20080;-75
2022/05/23 08:43:56;;;;;;;4.18;1.73;;;;;;;;;;5005476;28;20511;-74
2022/05/23 08:46:42;;;;;;;6.60;1.70;;;;;;;;;;4999816;28;20100;-73
2022/05/23 08:49:35;;;;;;;3.65;2.58;;;;;;;;;;5009960;28;20065;-76
2022/05/23 08:52:01;;;;;;;3.33;1.60;;;;;;;;;;5006919;28;20038;-77
2022/05/23 08:54:30;;;;;;;3.05;2.53;;;;;;;;;;5008520;28;20026;-76
2022/05/23 08:56:57;;;;;;;3.35;1.58;;;;;;;;;;5007120;28;20029;-77
2022/05/23 08:59:25;;;;;;;3.92;2.10;;;;;;;;;;5005783;28;20041;-75
2022/05/23 09:02:02;;;;;;;1.65;1.52;;;;;;;;;;5001808;28;20034;-76
2022/05/23 09:04:43;;;;;;;3.40;1.95;;;;;;;;;;5005736;28;20068;-76
2022/05/23 09:07:13;;;;;;;4.55;1.90;;;;;;;;;;5004519;28;20029;-76
2022/05/23 09:09:39;;;;;;;4.28;1.80;;;;;;;;;;5004445;28;20431;-76
2022/05/23 09:12:11;;;;;;;4.82;1.80;;;;;;;;;;5006792;28;20100;-77
2022/05/23 09:14:38;;;;;;;3.17;1.70;;;;;;;;;;5004872;28;20022;-78
2022/05/23 09:17:07;;;;;;;3.55;1.70;;;;;;;;;;5011678;28;20723;-76
2022/05/23 09:19:38;;;;;;;2.67;1.50;;;;;;;;;;5009824;28;20113;-75
2022/05/23 09:22:14;;;;;;;9.77;2.05;;;;;;;;;;5002667;28;20030;-75
2022/05/23 09:24:45;;;;;;;2.95;1.80;;;;;;;;;;5005306;28;20025;-75
2022/05/23 09:27:17;;;;;;;3.50;1.65;;;;;;;;;;5006938;28;20117;-74
2022/05/23 09:29:43;;;;;;;1.65;1.45;;;;;;;;;;5007731;28;20208;-77
2022/05/23 09:32:12;;;;;;;1.70;1.60;;;;;;;;;;5011564;28;20037;-76
2022/05/23 09:34:46;;;;;;;2.88;2.00;;;;;;;;;;5011049;28;20037;-75
2022/05/23 09:37:21;;;;;;;1.73;1.48;;;;;;;;;;5006769;28;20033;-76
2022/05/23 09:39:52;;;;;;;2.45;1.60;;;;;;;;;;5010870;28;20551;-75
2022/05/23 09:48:05;;;;;;;3.50;2.05;;;;;;;;;;5003110;28;20148;-76
2022/05/23 09:50:34;;;;;;;4.97;1.85;;;;;;;;;;5005253;28;20030;-75
2022/05/23 09:53:01;;;;;;;2.53;1.70;;;;;;;;;;5000399;28;20022;-75
2022/05/23 09:55:31;;;;;;;1.90;1.48;;;;;;;;;;5003275;28;20035;-76
2022/05/23 09:58:02;;;;;;;1.55;1.45;;;;;;;;;;4997819;28;20041;-75
2022/05/23 10:00:32;;;;;;;1.65;1.55;;;;;;;;;;5005074;28;20033;-75
2022/05/23 10:03:02;;;;;;;1.33;1.30;;;;;;;;;;5007104;28;20038;-75
2022/05/23 10:05:34;;;;;;;2.17;1.98;;;;;;;;;;5012312;28;20030;-76
2022/05/23 10:08:01;;;;;;;3.97;1.70;;;;;;;;;;5007789;28;20022;-75
2022/05/23 10:10:37;;;;;;;4.35;1.60;;;;;;;;;;5010250;28;20112;-73
2022/05/23 10:13:26;;;;;;;1.60;1.50;;;;;;;;;;5016204;28;20052;-73
2022/05/23 10:15:54;;;;;;;1.63;1.52;;;;;;;;;;5012415;28;20034;-74
2022/05/23 10:18:32;;;;;;;1.73;1.63;;;;;;;;;;5011128;28;20053;-74
2022/05/23 10:20:59;;;;;;;1.55;1.45;;;;;;;;;;5012335;28;20117;-76
2022/05/23 10:23:29;;;;;;;1.63;1.52;;;;;;;;;;5008168;28;20153;-75
2022/05/23 10:26:01;;;;;;;1.63;1.52;;;;;;;;;;5012697;28;20438;-76
2022/05/23 10:28:39;;;;;;;1.45;1.35;;;;;;;;;;5008020;28;20057;-74
2022/05/23 10:31:10;;;;;;;3.60;1.50;;;;;;;;;;5005362;28;20135;-75
2022/05/23 10:33:38;;;;;;;1.75;1.50;;;;;;;;;;5002647;28;20034;-75
2022/05/23 10:36:04;;;;;;;1.73;1.60;;;;;;;;;;5004568;28;20527;-76
2022/05/23 10:44:09;;;;;;;1.77;1.50;;;;;;;;;;5011165;28;20061;-75
2022/05/23 10:46:36;;;;;;;1.50;1.40;;;;;;;;;;5008049;28;20089;-75
2022/05/23 10:49:05;;;;;;;1.92;1.70;;;;;;;;;;5005187;28;20026;-75
2022/05/23 10:51:41;;;;;;;1.83;1.48;;;;;;;;;;5004372;28;20077;-76
2022/05/23 10:54:08;;;;;;;3.30;1.67;;;;;;;;;;5008138;28;20353;-75
2022/05/23 10:56:53;;;;;;;2.80;1.58;;;;;;;;;;5007304;28;20478;-76
2022/05/23 10:59:20;;;;;;;1.60;1.40;;;;;;;;;;5007203;28;20033;-75
2022/05/23 11:01:52;;;;;;;3.47;1.55;;;;;;;;;;5005950;28;20104;-75
2022/05/23 11:04:29;;;;;;;2.47;1.60;;;;;;;;;;5012521;28;21192;-75
2022/05/23 11:06:58;;;;;;;1.52;1.42;;;;;;;;;;5008440;28;20040;-75
2022/05/23 11:09:40;;;;;;;1.50;1.40;;;;;;;;;;5009636;28;20049;-76
2022/05/23 11:12:18;;;;;;;1.70;1.60;;;;;;;;;;5009934;28;20018;-74
2022/05/23 11:14:51;;;;;;;1.63;1.40;;;;;;;;;;5003472;28;20108;-75
2022/05/23 11:17:17;;;;;;;2.85;1.60;;;;;;;;;;5005078;28;20032;-75
2022/05/23 11:20:03;;;;;;;1.30;1.10;;;;;;;;;;5008716;28;20778;-75
2022/05/23 11:22:49;;;;;;;1.35;1.35;;;;;;;;;;5004382;28;20042;-74
2022/05/23 11:25:20;;;;;;;3.70;1.30;;;;;;;;;;5009177;28;20022;-76
2022/05/23 11:33:45;;;;;;;1.73;1.55;;;;;;;;;;5014487;28;20044;-76
2022/05/23 11:36:15;;;;;;;2.25;1.20;;;;;;;;;;5010149;28;20049;-76
2022/05/23 11:38:48;;;;;;;2.70;1.60;;;;;;;;;;5010159;28;20018;-76
2022/05/23 11:41:34;;;;;;;3.42;2.03;;;;;;;;;;5007461;28;20038;-75
2022/05/23 11:44:01;;;;;;;1.42;1.33;;;;;;;;;;5018538;28;20056;-75
2022/05/23 11:46:47;;;;;;;1.50;1.30;;;;;;;;;;5000681;28;20086;-76
2022/05/23 11:49:33;;;;;;;2.78;1.80;;;;;;;;;;5007641;28;20116;-75
2022/05/23 11:52:02;;;;;;;2.10;1.75;;;;;;;;;;5006799;28;20061;-76
2022/05/23 11:54:32;;;;;;;3.33;1.70;;;;;;;;;;5009136;28;20040;-76
2022/05/23 11:57:04;;;;;;;2.10;1.90;;;;;;;;;;5002449;28;20061;-76
2022/05/23 11:59:30;;;;;;;1.60;1.50;;;;;;;;;;5009644;28;20033;-75
2022/05/23 12:02:12;;;;;;;1.80;1.70;;;;;;;;;;5009165;28;20120;-76
2022/05/23 12:04:44;;;;;;;1.70;1.60;;;;;;;;;;5007799;28;20022;-76
2022/05/23 12:07:29;;;;;;;2.10;1.50;;;;;;;;;;5003553;28;20416;-75
2022/05/23 12:09:56;;;;;;;1.80;1.70;;;;;;;;;;5008854;28;20060;-77
2022/05/23 12:12:27;;;;;;;1.80;1.70;;;;;;;;;;5029644;28;20126;-77
2022/05/23 12:14:54;;;;;;;2.42;1.67;;;;;;;;;;5016622;28;20033;-77
2022/05/23 12:17:31;;;;;;;2.15;1.48;;;;;;;;;;5019614;28;20029;-76
2022/05/23 12:19:59;;;;;;;2.67;1.50;;;;;;;;;;5018600;28;20030;-77
2022/05/23 12:22:32;;;;;;;1.67;1.58;;;;;;;;;;5019539;28;20131;-77
2022/05/23 12:25:03;;;;;;;2.72;1.60;;;;;;;;;;5014261;28;20060;-76
2022/05/23 12:27:34;;;;;;;1.30;1.30;;;;;;;;;;5014046;28;20080;-76
2022/05/23 12:30:31;;;;;;;2.00;1.63;;;;;;;;;;5015917;28;20491;-76
2022/05/23 12:33:06;;;;;;;4.20;1.63;;;;;;;;;;5012396;28;20037;-76
2022/05/23 12:35:32;;;;;;;;;;;;;;;;;;5013800;28;20042;-78
2022/05/23 12:37:58;;;;;;;2.58;2.33;;;;;;;;;;5014443;28;19921;-76
2022/05/23 12:40:39;;;;;;;1.88;1.67;;;;;;;;;;5011442;28;20033;-77
2022/05/23 12:43:24;;;;;;;2.65;1.90;;;;;;;;;;5010606;28;20033;-77
2022/05/23 12:46:04;;;;;;;3.27;1.70;;;;;;;;;;5010979;28;20038;-75
2022/05/23 12:48:51;;;;;;;1.60;1.50;;;;;;;;;;5009652;28;21016;-76
2022/05/23 12:51:33;;;;;;;2.67;1.60;;;;;;;;;;5020482;28;20398;-77
2022/05/23 12:54:05;;;;;;;1.60;1.50;;;;;;;;;;5010809;28;20024;-76
2022/05/23 12:56:31;;;;;;;2.35;1.50;;;;;;;;;;5007215;28;20029;-76
2022/05/23 12:59:16;;;;;;;1.52;1.42;;;;;;;;;;5004665;28;20025;-76
2022/05/23 13:01:44;;;;;;;1.40;1.30;;;;;;;;;;5004435;28;20044;-76
2022/05/23 13:04:13;;;;;;;1.60;1.50;;;;;;;;;;5007823;28;20029;-75
2022/05/23 13:06:58;;;;;;;1.33;1.20;;;;;;;;;;5004742;28;20033;-76
2022/05/23 13:09:44;;;;;;;1.13;1.13;;;;;;;;;;5019607;28;20145;-78
2022/05/23 13:12:16;;;;;;;1.40;1.30;;;;;;;;;;5007002;28;20029;-76
2022/05/23 13:14:48;;;;;;;1.13;1.13;;;;;;;;;;5006588;28;20049;-76
2022/05/23 13:17:27;;;;;;;1.42;1.20;;;;;;;;;;5005369;28;20025;-76
2022/05/23 13:22:38;;;;;;;0.90;0.90;;;;;;;;;;5009100;28;20111;-75
2022/05/23 13:25:04;;;;;;;1.08;1.08;;;;;;;;;;5009792;28;20105;-77
2022/05/23 13:27:51;;;;;;;1.33;1.23;;;;;;;;;;5007332;28;20036;-76
2022/05/23 13:30:17;;;;;;;1.33;1.23;;;;;;;;;;5022595;28;20117;-76
2022/05/23 13:32:44;;;;;;;3.47;1.55;;;;;;;;;;5009628;28;20030;-76
2022/05/23 13:35:16;;;;;;;1.85;1.20;;;;;;;;;;5018772;28;20105;-76
2022/05/23 13:37:43;;;;;;;1.42;1.33;;;;;;;;;;5019788;28;20161;-76
2022/05/23 13:40:10;;;;;;;1.10;1.10;;;;;;;;;;5032527;28;20506;-75
2022/05/23 13:42:36;;;;;;;1.95;1.40;;;;;;;;;;5017719;28;20022;-76
2022/05/23 13:45:10;;;;;;;3.30;1.40;;;;;;;;;;5015303;28;20050;-76
2022/05/23 13:47:36;;;;;;;2.70;1.52;;;;;;;;;;5033852;28;20081;-75
2022/05/23 13:50:09;;;;;;;2.25;1.60;;;;;;;;;;5015754;28;20040;-76
2022/05/23 13:52:39;;;;;;;1.60;1.40;;;;;;;;;;5015837;28;20044;-76
2022/05/23 13:55:09;;;;;;;1.33;1.10;;;;;;;;;;5021409;28;20382;-75
2022/05/23 13:57:56;;;;;;;1.27;1.17;;;;;;;;;;5019651;28;20064;-76
2022/05/23 14:00:26;;;;;;;1.80;1.25;;;;;;;;;;5018843;28;20038;-76
2022/05/23 14:02:57;;;;;;;1.50;1.40;;;;;;;;;;5017253;28;20026;-75
2022/05/23 14:05:25;;;;;;;1.10;1.10;;;;;;;;;;5021576;28;20033;-76
2022/05/23 14:07:52;;;;;;;2.53;1.38;;;;;;;;;;5011183;28;20424;-76
2022/05/23 14:10:26;;;;;;;2.22;1.50;;;;;;;;;;5013407;28;20061;-76
2022/05/23 14:12:52;;;;;;;4.20;2.10;;;;;;;;;;5013466;28;20034;-76
2022/05/23 14:15:23;;;;;;;1.42;1.33;;;;;;;;;;5021702;28;20423;-77
2022/05/23 14:17:50;;;;;;;1.60;1.50;;;;;;;;;;5016433;28;20629;-77
2022/05/23 14:20:21;;;;;;;1.40;1.30;;;;;;;;;;5012364;28;20125;-76
2022/05/23 14:23:06;;;;;;;1.85;1.70;;;;;;;;;;5016106;28;20023;-77
2022/05/23 14:25:34;;;;;;;1.60;1.50;;;;;;;;;;5019343;28;20072;-77
2022/05/23 14:28:17;;;;;;;1.60;1.50;;;;;;;;;;5020053;28;20760;-76
2022/05/23 14:30:45;;;;;;;2.03;1.67;;;;;;;;;;5013475;28;20076;-76
2022/05/23 14:33:17;;;;;;;1.80;1.42;;;;;;;;;;5020567;28;20033;-76
2022/05/23 14:36:00;;;;;;;2.13;1.95;;;;;;;;;;5014757;28;20031;-77
2022/05/23 14:38:29;;;;;;;2.25;1.73;;;;;;;;;;5010845;28;20029;-75
2022/05/23 14:40:56;;;;;;;1.52;1.40;;;;;;;;;;5010385;28;20030;-77
2022/05/23 14:43:27;;;;;;;1.30;1.23;;;;;;;;;;5018079;28;21199;-77
2022/05/23 14:45:55;;;;;;;1.27;1.20;;;;;;;;;;5012977;28;20034;-77
2022/05/23 14:48:26;;;;;;;1.30;1.20;;;;;;;;;;5014058;28;20030;-77
2022/05/23 14:51:09;;;;;;;1.27;1.23;;;;;;;;;;5016148;28;20037;-77
2022/05/23 14:56:33;;;;;;;1.40;1.30;;;;;;;;;;5014047;28;20052;-75
2022/05/23 15:01:44;;;;;;;1.37;1.10;;;;;;;;;;5022261;28;20085;-75
2022/05/23 15:04:28;;;;;;;1.10;1.10;;;;;;;;;;5020245;28;20373;-76
2022/05/23 15:06:55;;;;;;;1.60;1.50;;;;;;;;;;5015379;28;20071;-76
2022/05/23 15:09:21;;;;;;;1.55;1.40;;;;;;;;;;5021765;28;20078;-76
2022/05/23 15:11:47;;;;;;;1.42;1.40;;;;;;;;;;5004781;28;20018;-81
2022/05/23 15:14:15;;;;;;;2.20;1.50;;;;;;;;;;5003337;28;20034;-83
2022/05/23 15:16:42;;;;;;;1.30;1.30;;;;;;;;;;5007676;28;20030;-76
2022/05/23 15:19:09;;;;;;;1.73;1.20;;;;;;;;;;5006453;28;20025;-78
2022/05/23 15:21:36;;;;;;;1.45;1.35;;;;;;;;;;5007800;28;20041;-78
2022/05/23 15:24:02;;;;;;;1.20;1.20;;;;;;;;;;5003126;28;20026;-78
2022/05/23 15:26:30;;;;;;;1.40;1.30;;;;;;;;;;5007412;28;20021;-79
2022/05/23 15:28:56;;;;;;;0.95;0.95;;;;;;;;;;5009044;28;20790;-78
2022/05/23 15:31:24;;;;;;;1.42;1.27;;;;;;;;;;5009521;28;20129;-77
2022/05/23 15:33:50;;;;;;;1.85;1.35;;;;;;;;;;5010533;28;20499;-77
2022/05/23 15:36:17;;;;;;;1.20;1.10;;;;;;;;;;5011053;28;20507;-79
2022/05/23 15:38:43;;;;;;;1.40;1.30;;;;;;;;;;5009878;28;20058;-81
2022/05/23 15:41:10;;;;;;;1.40;1.30;;;;;;;;;;5007998;28;20082;-75
2022/05/23 15:43:37;;;;;;;1.33;1.23;;;;;;;;;;5011407;28;20128;-77
2022/05/23 15:46:07;;;;;;;1.13;1.02;;;;;;;;;;5035259;28;20034;-76
2022/05/23 15:48:33;;;;;;;1.27;1.17;;;;;;;;;;5013396;28;20029;-74
2022/05/23 15:50:59;;;;;;;1.50;1.40;;;;;;;;;;5010495;28;20029;-75
2022/05/23 15:53:25;;;;;;;1.40;1.30;;;;;;;;;;5006053;28;20030;-74
2022/05/23 15:55:53;;;;;;;1.20;1.20;;;;;;;;;;5010590;28;20050;-75
2022/05/23 15:58:20;;;;;;;1.35;1.30;;;;;;;;;;5004257;28;20499;-75
2022/05/23 16:00:46;;;;;;;1.40;1.30;;;;;;;;;;5003166;28;20029;-75